sensor_id;sensor_type;location;lat;lon;timestamp;pressure;altitude;pressure_sealevel;temperature;humidity
10079;BME280;5078;42.544;22.966;2022-10-16T00:00:36;94509.94;;;7.37;100.00
10079;BME280;5078;42.544;22.966;2022-10-16T00:03:04;94508.81;;;7.10;100.00
10079;BME280;5078;42.544;22.966;2022-10-16T00:05:31;94520.91;;;7.32;100.00
10079;BME280;5078;42.544;22.966;2022-10-16T00:07:58;94521.03;;;7.41;100.00
10079;BME280;5078;42.544;22.966;2022-10-16T00:10:25;94526.72;;;7.36;100.00
10079;BME280;5078;42.544;22.966;2022-10-16T00:12:52;94521.03;;;7.50;100.00
10079;BME280;5078;42.544;22.966;2022-10-16T00:15:20;94522.84;;;7.21;100.00
10079;BME280;5078;42.544;22.966;2022-10-16T00:17:47;94521.88;;;7.22;100.00
10079;BME280;5078;42.544;22.966;2022-10-16T00:20:18;94523.00;;;7.09;100.00
10079;BME280;5078;42.544;22.966;2022-10-16T00:22:44;94533.38;;;7.11;100.00
10079;BME280;5078;42.544;22.966;2022-10-16T00:25:15;94530.50;;;6.44;100.00
10079;BME280;5078;42.544;22.966;2022-10-16T00:27:42;94528.31;;;6.19;100.00
10079;BME280;5078;42.544;22.966;2022-10-16T00:30:09;94538.38;;;6.35;100.00
10079;BME280;5078;42.544;22.966;2022-10-16T00:32:37;94534.25;;;6.42;100.00
10079;BME280;5078;42.544;22.966;2022-10-16T00:35:05;94532.63;;;6.60;100.00
10079;BME280;5078;42.544;22.966;2022-10-16T00:37:32;94527.25;;;6.81;100.00
10079;BME280;5078;42.544;22.966;2022-10-16T00:39:58;94526.28;;;6.73;100.00
10079;BME280;5078;42.544;22.966;2022-10-16T00:42:25;94534.53;;;6.48;100.00
10079;BME280;5078;42.544;22.966;2022-10-16T00:44:54;94532.66;;;6.70;100.00
10079;BME280;5078;42.544;22.966;2022-10-16T00:47:32;94532.91;;;6.57;100.00
10079;BME280;5078;42.544;22.966;2022-10-16T00:50:23;94541.28;;;6.82;100.00
10079;BME280;5078;42.544;22.966;2022-10-16T00:52:53;94527.94;;;6.74;100.00
10079;BME280;5078;42.544;22.966;2022-10-16T00:55:25;94535.81;;;6.64;100.00
10079;BME280;5078;42.544;22.966;2022-10-16T00:57:53;94538.75;;;6.80;100.00
10079;BME280;5078;42.544;22.966;2022-10-16T01:00:22;94536.88;;;6.42;100.00
10079;BME280;5078;42.544;22.966;2022-10-16T01:02:52;94543.41;;;6.07;100.00
10079;BME280;5078;42.544;22.966;2022-10-16T01:05:21;94535.03;;;6.33;100.00
10079;BME280;5078;42.544;22.966;2022-10-16T01:07:53;94538.44;;;6.54;100.00
10079;BME280;5078;42.544;22.966;2022-10-16T01:10:31;94536.53;;;6.76;100.00
10079;BME280;5078;42.544;22.966;2022-10-16T01:13:07;94545.16;;;6.78;100.00
10079;BME280;5078;42.544;22.966;2022-10-16T01:15:37;94539.88;;;6.28;100.00
10079;BME280;5078;42.544;22.966;2022-10-16T01:18:10;94527.03;;;6.34;100.00
10079;BME280;5078;42.544;22.966;2022-10-16T01:20:42;94537.78;;;6.62;100.00
10079;BME280;5078;42.544;22.966;2022-10-16T01:23:37;94531.91;;;6.58;100.00
10079;BME280;5078;42.544;22.966;2022-10-16T01:26:28;94549.47;;;6.38;100.00
10079;BME280;5078;42.544;22.966;2022-10-16T01:29:03;94538.28;;;6.15;100.00
10079;BME280;5078;42.544;22.966;2022-10-16T01:31:36;94531.22;;;6.16;100.00
10079;BME280;5078;42.544;22.966;2022-10-16T01:34:10;94531.84;;;5.98;100.00
10079;BME280;5078;42.544;22.966;2022-10-16T01:36:43;94532.47;;;6.12;100.00
10079;BME280;5078;42.544;22.966;2022-10-16T01:39:19;94532.00;;;5.97;100.00
10079;BME280;5078;42.544;22.966;2022-10-16T01:41:51;94541.41;;;5.99;100.00
10079;BME280;5078;42.544;22.966;2022-10-16T01:44:26;94546.84;;;6.08;100.00
10079;BME280;5078;42.544;22.966;2022-10-16T01:46:55;94546.91;;;6.17;100.00
10079;BME280;5078;42.544;22.966;2022-10-16T01:49:25;94549.19;;;6.32;100.00
10079;BME280;5078;42.544;22.966;2022-10-16T01:52:01;94547.66;;;6.29;100.00
10079;BME280;5078;42.544;22.966;2022-10-16T01:54:31;94548.38;;;6.41;100.00
10079;BME280;5078;42.544;22.966;2022-10-16T01:56:59;94554.81;;;6.17;100.00
10079;BME280;5078;42.544;22.966;2022-10-16T01:59:31;94558.47;;;6.05;100.00
10079;BME280;5078;42.544;22.966;2022-10-16T02:02:00;94561.44;;;6.12;100.00
10079;BME280;5078;42.544;22.966;2022-10-16T02:04:32;94568.53;;;6.21;100.00
10079;BME280;5078;42.544;22.966;2022-10-16T02:06:59;94569.72;;;6.07;100.00
10079;BME280;5078;42.544;22.966;2022-10-16T02:09:26;94572.34;;;6.07;100.00
10079;BME280;5078;42.544;22.966;2022-10-16T02:11:56;94582.44;;;6.33;100.00
10079;BME280;5078;42.544;22.966;2022-10-16T02:14:29;94585.19;;;6.31;100.00
10079;BME280;5078;42.544;22.966;2022-10-16T02:16:56;94576.78;;;6.37;100.00
10079;BME280;5078;42.544;22.966;2022-10-16T02:19:22;94579.75;;;6.23;100.00
10079;BME280;5078;42.544;22.966;2022-10-16T02:21:53;94585.63;;;6.05;100.00
10079;BME280;5078;42.544;22.966;2022-10-16T02:24:27;94554.28;;;5.81;100.00
10079;BME280;5078;42.544;22.966;2022-10-16T02:27:00;94561.75;;;5.76;100.00
10079;BME280;5078;42.544;22.966;2022-10-16T02:29:32;94594.34;;;5.85;100.00
10079;BME280;5078;42.544;22.966;2022-10-16T02:32:06;94594.28;;;5.75;100.00
10079;BME280;5078;42.544;22.966;2022-10-16T02:34:35;94593.09;;;5.79;100.00
10079;BME280;5078;42.544;22.966;2022-10-16T02:37:04;94601.97;;;5.99;100.00
10079;BME280;5078;42.544;22.966;2022-10-16T02:39:32;94600.91;;;5.70;100.00
10079;BME280;5078;42.544;22.966;2022-10-16T02:42:00;94597.16;;;5.51;100.00
10079;BME280;5078;42.544;22.966;2022-10-16T02:44:26;94603.56;;;5.58;100.00
10079;BME280;5078;42.544;22.966;2022-10-16T02:46:54;94605.31;;;5.48;100.00
10079;BME280;5078;42.544;22.966;2022-10-16T02:49:21;94597.94;;;5.42;100.00
10079;BME280;5078;42.544;22.966;2022-10-16T02:51:48;94588.31;;;5.52;100.00
10079;BME280;5078;42.544;22.966;2022-10-16T02:54:14;94595.38;;;5.73;100.00
10079;BME280;5078;42.544;22.966;2022-10-16T02:56:49;94594.81;;;5.69;100.00
10079;BME280;5078;42.544;22.966;2022-10-16T02:59:16;94593.97;;;5.90;100.00
10079;BME280;5078;42.544;22.966;2022-10-16T03:01:43;94596.22;;;5.73;100.00
10079;BME280;5078;42.544;22.966;2022-10-16T03:04:11;94597.94;;;5.84;100.00
10079;BME280;5078;42.544;22.966;2022-10-16T03:06:38;94595.44;;;5.82;100.00
10079;BME280;5078;42.544;22.966;2022-10-16T03:09:04;94589.03;;;5.75;100.00
10079;BME280;5078;42.544;22.966;2022-10-16T03:11:31;94592.94;;;5.81;100.00
10079;BME280;5078;42.544;22.966;2022-10-16T03:13:58;94592.69;;;5.63;100.00
10079;BME280;5078;42.544;22.966;2022-10-16T03:16:24;94596.03;;;5.65;100.00
10079;BME280;5078;42.544;22.966;2022-10-16T03:18:51;94598.72;;;5.75;100.00
10079;BME280;5078;42.544;22.966;2022-10-16T03:21:19;94592.56;;;5.65;100.00
10079;BME280;5078;42.544;22.966;2022-10-16T03:23:46;94596.28;;;5.62;100.00
10079;BME280;5078;42.544;22.966;2022-10-16T03:26:13;94599.41;;;5.56;100.00
10079;BME280;5078;42.544;22.966;2022-10-16T03:28:42;94591.31;;;5.48;100.00
10079;BME280;5078;42.544;22.966;2022-10-16T03:31:09;94582.47;;;5.49;100.00
10079;BME280;5078;42.544;22.966;2022-10-16T03:33:36;94594.16;;;5.56;100.00
10079;BME280;5078;42.544;22.966;2022-10-16T03:36:04;94591.13;;;5.39;100.00
10079;BME280;5078;42.544;22.966;2022-10-16T03:38:33;94605.75;;;5.21;100.00
10079;BME280;5078;42.544;22.966;2022-10-16T03:40:59;94595.13;;;5.23;100.00
10079;BME280;5078;42.544;22.966;2022-10-16T03:43:26;94600.66;;;5.52;100.00
10079;BME280;5078;42.544;22.966;2022-10-16T03:45:53;94600.56;;;5.63;100.00
10079;BME280;5078;42.544;22.966;2022-10-16T03:48:20;94604.03;;;5.43;100.00
10079;BME280;5078;42.544;22.966;2022-10-16T03:50:47;94587.97;;;5.46;100.00
10079;BME280;5078;42.544;22.966;2022-10-16T03:53:16;94604.81;;;5.54;100.00
10079;BME280;5078;42.544;22.966;2022-10-16T03:55:44;94605.69;;;5.44;100.00
10079;BME280;5078;42.544;22.966;2022-10-16T03:58:11;94600.03;;;5.48;100.00
10079;BME280;5078;42.544;22.966;2022-10-16T04:00:40;94587.16;;;5.45;100.00
10079;BME280;5078;42.544;22.966;2022-10-16T04:03:06;94598.25;;;5.49;100.00
10079;BME280;5078;42.544;22.966;2022-10-16T04:05:33;94590.00;;;5.21;100.00
10079;BME280;5078;42.544;22.966;2022-10-16T04:08:00;94601.41;;;5.31;100.00
10079;BME280;5078;42.544;22.966;2022-10-16T04:10:27;94598.25;;;5.16;100.00
10079;BME280;5078;42.544;22.966;2022-10-16T04:12:55;94593.09;;;5.26;100.00
10079;BME280;5078;42.544;22.966;2022-10-16T04:15:22;94600.28;;;4.81;100.00
10079;BME280;5078;42.544;22.966;2022-10-16T04:17:49;94588.88;;;4.91;100.00
10079;BME280;5078;42.544;22.966;2022-10-16T04:20:16;94595.66;;;5.05;100.00
10079;BME280;5078;42.544;22.966;2022-10-16T04:22:42;94591.00;;;5.09;100.00
10079;BME280;5078;42.544;22.966;2022-10-16T04:25:09;94588.41;;;4.97;100.00
10079;BME280;5078;42.544;22.966;2022-10-16T04:27:36;94591.97;;;4.96;100.00
10079;BME280;5078;42.544;22.966;2022-10-16T04:30:06;94595.06;;;5.02;100.00
10079;BME280;5078;42.544;22.966;2022-10-16T04:32:33;94597.47;;;5.05;100.00
10079;BME280;5078;42.544;22.966;2022-10-16T04:34:59;94598.13;;;5.18;100.00
10079;BME280;5078;42.544;22.966;2022-10-16T04:37:27;94600.41;;;5.23;100.00
10079;BME280;5078;42.544;22.966;2022-10-16T04:39:56;94605.53;;;4.81;100.00
10079;BME280;5078;42.544;22.966;2022-10-16T04:42:23;94610.09;;;4.56;100.00
10079;BME280;5078;42.544;22.966;2022-10-16T04:44:50;94612.44;;;4.93;100.00
10079;BME280;5078;42.544;22.966;2022-10-16T04:47:18;94616.25;;;4.89;100.00
10079;BME280;5078;42.544;22.966;2022-10-16T04:49:46;94614.19;;;5.04;100.00
10079;BME280;5078;42.544;22.966;2022-10-16T04:52:12;94623.94;;;4.58;100.00
10079;BME280;5078;42.544;22.966;2022-10-16T04:54:42;94624.03;;;4.90;100.00
10079;BME280;5078;42.544;22.966;2022-10-16T04:57:10;94626.19;;;4.85;100.00
10079;BME280;5078;42.544;22.966;2022-10-16T04:59:37;94620.41;;;5.03;100.00
10079;BME280;5078;42.544;22.966;2022-10-16T05:02:03;94632.38;;;4.95;100.00
10079;BME280;5078;42.544;22.966;2022-10-16T05:04:32;94617.25;;;5.20;100.00
10079;BME280;5078;42.544;22.966;2022-10-16T05:06:59;94623.06;;;5.35;100.00
10079;BME280;5078;42.544;22.966;2022-10-16T05:09:26;94629.97;;;5.36;100.00
10079;BME280;5078;42.544;22.966;2022-10-16T05:11:52;94634.56;;;5.55;100.00
10079;BME280;5078;42.544;22.966;2022-10-16T05:14:19;94632.97;;;5.31;100.00
10079;BME280;5078;42.544;22.966;2022-10-16T05:16:46;94636.22;;;5.24;100.00
10079;BME280;5078;42.544;22.966;2022-10-16T05:19:13;94637.94;;;5.13;100.00
10079;BME280;5078;42.544;22.966;2022-10-16T05:21:41;94636.13;;;5.14;100.00
10079;BME280;5078;42.544;22.966;2022-10-16T05:24:08;94645.28;;;4.87;100.00
10079;BME280;5078;42.544;22.966;2022-10-16T05:26:35;94638.13;;;4.89;100.00
10079;BME280;5078;42.544;22.966;2022-10-16T05:29:02;94642.38;;;5.02;100.00
10079;BME280;5078;42.544;22.966;2022-10-16T05:31:29;94639.38;;;5.50;100.00
10079;BME280;5078;42.544;22.966;2022-10-16T05:33:58;94648.34;;;5.79;100.00
10079;BME280;5078;42.544;22.966;2022-10-16T05:36:25;94667.25;;;6.26;100.00
10079;BME280;5078;42.544;22.966;2022-10-16T05:38:53;94655.41;;;6.42;100.00
10079;BME280;5078;42.544;22.966;2022-10-16T05:41:20;94655.53;;;6.40;100.00
10079;BME280;5078;42.544;22.966;2022-10-16T05:43:48;94660.16;;;6.06;100.00
10079;BME280;5078;42.544;22.966;2022-10-16T05:46:15;94656.84;;;6.86;100.00
10079;BME280;5078;42.544;22.966;2022-10-16T05:48:42;94658.31;;;7.20;100.00
10079;BME280;5078;42.544;22.966;2022-10-16T05:51:11;94665.16;;;7.32;100.00
10079;BME280;5078;42.544;22.966;2022-10-16T05:53:38;94666.28;;;7.59;100.00
10079;BME280;5078;42.544;22.966;2022-10-16T05:56:09;94665.59;;;7.95;100.00
10079;BME280;5078;42.544;22.966;2022-10-16T05:58:38;94674.09;;;7.70;100.00
10079;BME280;5078;42.544;22.966;2022-10-16T06:01:09;94678.59;;;8.36;100.00
10079;BME280;5078;42.544;22.966;2022-10-16T06:03:36;94672.13;;;8.77;100.00
10079;BME280;5078;42.544;22.966;2022-10-16T06:06:07;94679.22;;;9.42;100.00
10079;BME280;5078;42.544;22.966;2022-10-16T06:08:34;94680.81;;;9.70;100.00
10079;BME280;5078;42.544;22.966;2022-10-16T06:11:01;94671.47;;;9.76;100.00
10079;BME280;5078;42.544;22.966;2022-10-16T06:13:30;94688.06;;;9.50;100.00
10079;BME280;5078;42.544;22.966;2022-10-16T06:15:57;94686.81;;;9.27;100.00
10079;BME280;5078;42.544;22.966;2022-10-16T06:18:24;94684.41;;;9.79;100.00
10079;BME280;5078;42.544;22.966;2022-10-16T06:20:51;94691.22;;;10.00;100.00
10079;BME280;5078;42.544;22.966;2022-10-16T06:23:18;94692.97;;;10.09;100.00
10079;BME280;5078;42.544;22.966;2022-10-16T06:25:45;94703.81;;;10.60;100.00
10079;BME280;5078;42.544;22.966;2022-10-16T06:28:13;94699.28;;;10.78;97.75
10079;BME280;5078;42.544;22.966;2022-10-16T06:30:43;94702.28;;;10.31;99.99
10079;BME280;5078;42.544;22.966;2022-10-16T06:33:09;94699.06;;;10.27;100.00
10079;BME280;5078;42.544;22.966;2022-10-16T06:35:36;94702.19;;;10.41;98.57
10079;BME280;5078;42.544;22.966;2022-10-16T06:38:03;94701.94;;;10.78;98.93
10079;BME280;5078;42.544;22.966;2022-10-16T06:40:30;94706.97;;;10.37;98.51
10079;BME280;5078;42.544;22.966;2022-10-16T06:42:57;94714.50;;;10.94;96.84
10079;BME280;5078;42.544;22.966;2022-10-16T06:45:23;94712.25;;;11.41;93.59
10079;BME280;5078;42.544;22.966;2022-10-16T06:47:51;94714.78;;;11.51;92.68
10079;BME280;5078;42.544;22.966;2022-10-16T06:50:18;94711.94;;;11.53;92.05
10079;BME280;5078;42.544;22.966;2022-10-16T06:52:46;94712.00;;;11.27;92.45
10079;BME280;5078;42.544;22.966;2022-10-16T06:55:13;94715.84;;;10.72;96.00
10079;BME280;5078;42.544;22.966;2022-10-16T06:57:40;94713.84;;;11.26;95.98
10079;BME280;5078;42.544;22.966;2022-10-16T07:00:07;94710.47;;;11.16;95.18
10079;BME280;5078;42.544;22.966;2022-10-16T07:02:34;94716.50;;;11.26;96.14
10079;BME280;5078;42.544;22.966;2022-10-16T07:05:03;94710.41;;;11.42;94.52
10079;BME280;5078;42.544;22.966;2022-10-16T07:07:30;94719.16;;;11.77;93.39
10079;BME280;5078;42.544;22.966;2022-10-16T07:09:56;94719.66;;;11.72;92.93
10079;BME280;5078;42.544;22.966;2022-10-16T07:12:23;94720.81;;;11.70;93.59
10079;BME280;5078;42.544;22.966;2022-10-16T07:14:50;94722.63;;;11.61;94.51
10079;BME280;5078;42.544;22.966;2022-10-16T07:17:17;94733.41;;;12.26;92.91
10079;BME280;5078;42.544;22.966;2022-10-16T07:19:44;94726.94;;;12.70;90.67
10079;BME280;5078;42.544;22.966;2022-10-16T07:22:12;94720.72;;;13.27;87.85
10079;BME280;5078;42.544;22.966;2022-10-16T07:24:41;94715.84;;;14.09;83.38
10079;BME280;5078;42.544;22.966;2022-10-16T07:27:09;94723.44;;;14.89;77.71
10079;BME280;5078;42.544;22.966;2022-10-16T07:29:36;94731.41;;;15.27;72.43
10079;BME280;5078;42.544;22.966;2022-10-16T07:32:03;94722.03;;;15.46;70.91
10079;BME280;5078;42.544;22.966;2022-10-16T07:34:30;94719.81;;;14.82;72.58
10079;BME280;5078;42.544;22.966;2022-10-16T07:36:56;94727.50;;;14.62;75.19
10079;BME280;5078;42.544;22.966;2022-10-16T07:39:24;94727.94;;;14.20;78.88
10079;BME280;5078;42.544;22.966;2022-10-16T07:41:51;94733.25;;;13.57;81.64
10079;BME280;5078;42.544;22.966;2022-10-16T07:44:18;94731.66;;;13.48;83.32
10079;BME280;5078;42.544;22.966;2022-10-16T07:46:44;94724.28;;;14.21;80.66
10079;BME280;5078;42.544;22.966;2022-10-16T07:49:11;94723.56;;;14.50;77.77
10079;BME280;5078;42.544;22.966;2022-10-16T07:51:38;94726.03;;;14.83;75.02
10079;BME280;5078;42.544;22.966;2022-10-16T07:54:05;94703.84;;;15.12;73.15
10079;BME280;5078;42.544;22.966;2022-10-16T07:56:33;94730.22;;;15.45;71.58
10079;BME280;5078;42.544;22.966;2022-10-16T07:58:59;94729.31;;;15.52;70.88
10079;BME280;5078;42.544;22.966;2022-10-16T08:01:26;94741.78;;;14.93;72.29
10079;BME280;5078;42.544;22.966;2022-10-16T08:03:53;94737.78;;;15.56;70.89
10079;BME280;5078;42.544;22.966;2022-10-16T08:06:22;94738.16;;;15.53;70.59
10079;BME280;5078;42.544;22.966;2022-10-16T08:08:49;94726.16;;;15.64;69.90
10079;BME280;5078;42.544;22.966;2022-10-16T08:11:16;94725.44;;;15.70;69.45
10079;BME280;5078;42.544;22.966;2022-10-16T08:13:44;94721.94;;;15.84;69.53
10079;BME280;5078;42.544;22.966;2022-10-16T08:16:11;94723.91;;;16.12;67.95
10079;BME280;5078;42.544;22.966;2022-10-16T08:18:39;94719.53;;;16.69;66.07
10079;BME280;5078;42.544;22.966;2022-10-16T08:21:07;94719.47;;;17.05;62.58
10079;BME280;5078;42.544;22.966;2022-10-16T08:23:38;94711.59;;;17.60;59.83
10079;BME280;5078;42.544;22.966;2022-10-16T08:26:06;94710.16;;;18.05;57.34
10079;BME280;5078;42.544;22.966;2022-10-16T08:28:38;94707.69;;;18.04;56.53
10079;BME280;5078;42.544;22.966;2022-10-16T08:31:08;94707.41;;;17.92;56.67
10079;BME280;5078;42.544;22.966;2022-10-16T08:33:35;94707.06;;;17.60;56.77
10079;BME280;5078;42.544;22.966;2022-10-16T08:36:03;94703.31;;;17.55;56.30
10079;BME280;5078;42.544;22.966;2022-10-16T08:38:30;94703.81;;;17.09;57.95
10079;BME280;5078;42.544;22.966;2022-10-16T08:41:08;94698.38;;;18.00;56.03
10079;BME280;5078;42.544;22.966;2022-10-16T08:43:46;94699.53;;;18.45;53.25
10079;BME280;5078;42.544;22.966;2022-10-16T08:46:41;94703.09;;;17.91;53.19
10079;BME280;5078;42.544;22.966;2022-10-16T08:49:11;94703.34;;;18.03;52.77
10079;BME280;5078;42.544;22.966;2022-10-16T08:51:39;94693.53;;;18.37;52.08
10079;BME280;5078;42.544;22.966;2022-10-16T08:54:25;94705.00;;;18.99;49.49
10079;BME280;5078;42.544;22.966;2022-10-16T08:56:55;94704.59;;;18.95;49.19
10079;BME280;5078;42.544;22.966;2022-10-16T08:59:22;94701.81;;;19.68;47.44
10079;BME280;5078;42.544;22.966;2022-10-16T09:01:51;94705.94;;;19.64;47.00
10079;BME280;5078;42.544;22.966;2022-10-16T09:04:43;94702.19;;;19.85;45.82
10079;BME280;5078;42.544;22.966;2022-10-16T09:07:17;94697.16;;;20.40;44.04
10079;BME280;5078;42.544;22.966;2022-10-16T09:10:09;94695.31;;;20.79;42.67
10079;BME280;5078;42.544;22.966;2022-10-16T09:12:43;94702.41;;;19.64;45.45
10079;BME280;5078;42.544;22.966;2022-10-16T09:15:23;94698.56;;;19.39;45.38
10079;BME280;5078;42.544;22.966;2022-10-16T09:17:59;94698.72;;;19.71;44.45
10079;BME280;5078;42.544;22.966;2022-10-16T09:20:34;94685.59;;;19.88;44.13
10079;BME280;5078;42.544;22.966;2022-10-16T09:23:13;94688.91;;;20.35;43.94
10079;BME280;5078;42.544;22.966;2022-10-16T09:25:49;94694.06;;;19.92;44.31
10079;BME280;5078;42.544;22.966;2022-10-16T09:28:17;94682.81;;;20.15;44.08
10079;BME280;5078;42.544;22.966;2022-10-16T09:30:44;94684.59;;;20.66;42.84
10079;BME280;5078;42.544;22.966;2022-10-16T09:33:18;94693.47;;;20.73;42.14
10079;BME280;5078;42.544;22.966;2022-10-16T09:35:47;94687.63;;;20.44;42.56
10079;BME280;5078;42.544;22.966;2022-10-16T09:38:23;94689.00;;;20.54;42.37
10079;BME280;5078;42.544;22.966;2022-10-16T09:40:50;94686.66;;;20.96;40.96
10079;BME280;5078;42.544;22.966;2022-10-16T09:43:23;94684.91;;;20.83;40.79
10079;BME280;5078;42.544;22.966;2022-10-16T09:45:57;94681.66;;;20.36;42.25
10079;BME280;5078;42.544;22.966;2022-10-16T09:48:27;94679.53;;;20.06;41.61
10079;BME280;5078;42.544;22.966;2022-10-16T09:50:59;94683.59;;;19.64;42.79
10079;BME280;5078;42.544;22.966;2022-10-16T09:53:38;94683.78;;;19.82;42.60
10079;BME280;5078;42.544;22.966;2022-10-16T09:56:05;94668.81;;;19.93;41.74
10079;BME280;5078;42.544;22.966;2022-10-16T09:58:33;94660.13;;;19.91;41.30
10079;BME280;5078;42.544;22.966;2022-10-16T10:01:00;94663.75;;;19.51;41.60
10079;BME280;5078;42.544;22.966;2022-10-16T10:03:37;94671.81;;;19.51;41.66
10079;BME280;5078;42.544;22.966;2022-10-16T10:06:14;94669.38;;;19.43;41.34
10079;BME280;5078;42.544;22.966;2022-10-16T10:08:55;94675.22;;;19.20;41.66
10079;BME280;5078;42.544;22.966;2022-10-16T10:11:39;94673.56;;;18.99;41.38
10079;BME280;5078;42.544;22.966;2022-10-16T10:14:23;94670.66;;;19.27;41.10
10079;BME280;5078;42.544;22.966;2022-10-16T10:16:51;94667.25;;;19.52;41.70
10079;BME280;5078;42.544;22.966;2022-10-16T10:19:21;94667.59;;;19.89;41.31
10079;BME280;5078;42.544;22.966;2022-10-16T10:21:49;94662.25;;;19.82;40.37
10079;BME280;5078;42.544;22.966;2022-10-16T10:24:18;94663.53;;;19.73;40.10
10079;BME280;5078;42.544;22.966;2022-10-16T10:26:51;94662.47;;;19.80;40.43
10079;BME280;5078;42.544;22.966;2022-10-16T10:29:31;94658.94;;;19.67;40.02
10079;BME280;5078;42.544;22.966;2022-10-16T10:32:12;94657.19;;;19.99;39.80
10079;BME280;5078;42.544;22.966;2022-10-16T10:34:54;94647.72;;;19.90;40.17
10079;BME280;5078;42.544;22.966;2022-10-16T10:37:43;94645.16;;;20.08;40.26
10079;BME280;5078;42.544;22.966;2022-10-16T10:40:28;94642.06;;;20.04;39.77
10079;BME280;5078;42.544;22.966;2022-10-16T10:43:02;94632.38;;;19.97;39.96
10079;BME280;5078;42.544;22.966;2022-10-16T10:45:42;94640.13;;;20.18;39.91
10079;BME280;5078;42.544;22.966;2022-10-16T10:48:20;94624.53;;;20.27;39.30
10079;BME280;5078;42.544;22.966;2022-10-16T10:50:55;94615.06;;;20.50;39.42
10079;BME280;5078;42.544;22.966;2022-10-16T10:53:34;94620.59;;;20.30;38.34
10079;BME280;5078;42.544;22.966;2022-10-16T10:56:20;94626.69;;;20.12;39.17
10079;BME280;5078;42.544;22.966;2022-10-16T11:01:50;94631.06;;;20.06;37.90
10079;BME280;5078;42.544;22.966;2022-10-16T11:04:43;94614.53;;;20.34;37.32
10079;BME280;5078;42.544;22.966;2022-10-16T11:07:20;94617.00;;;20.36;37.64
10079;BME280;5078;42.544;22.966;2022-10-16T11:09:53;94613.34;;;20.23;37.33
10079;BME280;5078;42.544;22.966;2022-10-16T11:12:23;94605.59;;;20.40;35.93
10079;BME280;5078;42.544;22.966;2022-10-16T11:14:57;94612.19;;;20.44;36.19
10079;BME280;5078;42.544;22.966;2022-10-16T11:17:30;94607.75;;;19.93;36.31
10079;BME280;5078;42.544;22.966;2022-10-16T11:20:03;94607.00;;;19.66;37.33
10079;BME280;5078;42.544;22.966;2022-10-16T11:22:36;94612.31;;;19.86;37.02
10079;BME280;5078;42.544;22.966;2022-10-16T11:25:11;94601.75;;;19.33;37.94
10079;BME280;5078;42.544;22.966;2022-10-16T11:27:42;94606.94;;;19.28;39.27
10079;BME280;5078;42.544;22.966;2022-10-16T11:30:17;94607.41;;;19.05;38.65
10079;BME280;5078;42.544;22.966;2022-10-16T11:32:54;94610.13;;;19.56;37.77
10079;BME280;5078;42.544;22.966;2022-10-16T11:35:28;94604.19;;;19.41;36.81
10079;BME280;5078;42.544;22.966;2022-10-16T11:38:03;94609.75;;;19.46;36.29
10079;BME280;5078;42.544;22.966;2022-10-16T11:40:38;94609.00;;;19.26;36.76
10079;BME280;5078;42.544;22.966;2022-10-16T11:43:13;94615.84;;;19.22;36.70
10079;BME280;5078;42.544;22.966;2022-10-16T11:45:43;94609.59;;;19.41;37.00
10079;BME280;5078;42.544;22.966;2022-10-16T11:48:18;94611.16;;;18.97;36.88
10079;BME280;5078;42.544;22.966;2022-10-16T11:50:52;94609.06;;;19.12;36.30
10079;BME280;5078;42.544;22.966;2022-10-16T11:53:31;94612.75;;;19.11;36.08
10079;BME280;5078;42.544;22.966;2022-10-16T11:56:03;94611.94;;;19.11;36.22
10079;BME280;5078;42.544;22.966;2022-10-16T11:58:33;94593.16;;;18.98;36.27
10079;BME280;5078;42.544;22.966;2022-10-16T12:01:15;94602.19;;;19.16;36.49
10079;BME280;5078;42.544;22.966;2022-10-16T12:03:47;94604.69;;;19.25;35.91
10079;BME280;5078;42.544;22.966;2022-10-16T12:06:28;94599.34;;;19.05;35.44
10079;BME280;5078;42.544;22.966;2022-10-16T12:08:59;94607.00;;;18.94;35.87
10079;BME280;5078;42.544;22.966;2022-10-16T12:11:37;94597.69;;;19.04;35.79
10079;BME280;5078;42.544;22.966;2022-10-16T12:14:21;94606.53;;;19.24;36.22
10079;BME280;5078;42.544;22.966;2022-10-16T12:16:53;94604.00;;;19.43;36.27
10079;BME280;5078;42.544;22.966;2022-10-16T12:19:21;94605.13;;;19.15;36.25
10079;BME280;5078;42.544;22.966;2022-10-16T12:21:50;94596.00;;;19.16;35.70
10079;BME280;5078;42.544;22.966;2022-10-16T12:24:35;94592.97;;;18.92;36.22
10079;BME280;5078;42.544;22.966;2022-10-16T12:27:05;94604.31;;;18.48;37.10
10079;BME280;5078;42.544;22.966;2022-10-16T12:29:37;94605.31;;;18.20;37.05
10079;BME280;5078;42.544;22.966;2022-10-16T12:32:06;94605.31;;;18.20;37.87
10079;BME280;5078;42.544;22.966;2022-10-16T12:34:48;94601.00;;;18.32;37.54
10079;BME280;5078;42.544;22.966;2022-10-16T12:37:21;94609.47;;;18.43;37.00
10079;BME280;5078;42.544;22.966;2022-10-16T12:40:23;94602.63;;;18.27;36.97
10079;BME280;5078;42.544;22.966;2022-10-16T12:42:52;94599.97;;;18.40;36.41
10079;BME280;5078;42.544;22.966;2022-10-16T12:45:30;94578.47;;;18.33;36.25
10079;BME280;5078;42.544;22.966;2022-10-16T12:47:59;94602.44;;;18.42;36.11
10079;BME280;5078;42.544;22.966;2022-10-16T12:50:30;94604.50;;;18.66;35.83
10079;BME280;5078;42.544;22.966;2022-10-16T12:52:57;94607.00;;;18.61;35.23
10079;BME280;5078;42.544;22.966;2022-10-16T12:55:26;94607.81;;;18.48;35.54
10079;BME280;5078;42.544;22.966;2022-10-16T12:58:08;94607.19;;;18.33;35.61
10079;BME280;5078;42.544;22.966;2022-10-16T13:00:44;94597.22;;;18.07;35.54
10079;BME280;5078;42.544;22.966;2022-10-16T13:03:30;94606.53;;;18.04;35.69
10079;BME280;5078;42.544;22.966;2022-10-16T13:06:15;94609.88;;;18.20;35.34
10079;BME280;5078;42.544;22.966;2022-10-16T13:09:01;94615.66;;;18.23;35.60
10079;BME280;5078;42.544;22.966;2022-10-16T13:11:43;94611.13;;;18.30;35.65
10079;BME280;5078;42.544;22.966;2022-10-16T13:14:29;94614.63;;;18.31;35.63
10079;BME280;5078;42.544;22.966;2022-10-16T13:17:06;94608.84;;;18.21;35.87
10079;BME280;5078;42.544;22.966;2022-10-16T13:19:42;94614.19;;;18.07;35.60
10079;BME280;5078;42.544;22.966;2022-10-16T13:22:17;94616.88;;;18.21;35.25